createdAt,value
2019-03-30T00:02:26.706Z,34.83
2019-03-30T00:07:28.298Z,34.08
2019-03-30T00:12:31.251Z,29.67
2019-03-30T00:17:32.748Z,33.98
2019-03-30T00:22:34.397Z,30.60
2019-03-30T00:27:37.390Z,32.55
2019-03-30T00:32:38.694Z,33.15
2019-03-30T00:37:40.257Z,29.37
2019-03-30T00:42:41.792Z,30.27
2019-03-30T00:47:43.429Z,27.27
2019-03-30T00:52:45.034Z,28.00
2019-03-30T00:57:46.646Z,24.65
2019-03-30T01:02:48.060Z,28.75
2019-03-30T01:07:50.063Z,26.50
2019-03-30T01:12:51.650Z,27.37
2019-03-30T01:17:54.478Z,27.52
2019-03-30T01:22:55.787Z,29.95
2019-03-30T01:27:57.407Z,31.60
2019-03-30T01:32:59.352Z,30.17
2019-03-30T01:38:00.799Z,29.20
2019-03-30T01:43:02.327Z,27.75
2019-03-30T01:48:03.964Z,29.72
2019-03-30T01:53:05.368Z,31.30
2019-03-30T01:58:08.112Z,29.55
2019-03-30T02:03:09.715Z,30.32
2019-03-30T02:08:11.730Z,26.62
2019-03-30T02:13:13.218Z,30.20
2019-03-30T02:18:14.657Z,28.00
2019-03-30T02:23:16.353Z,31.45
2019-03-30T02:28:18.165Z,31.35
2019-03-30T02:33:21.313Z,32.42
2019-03-30T02:38:22.775Z,31.68
2019-03-30T02:43:24.252Z,28.38
2019-03-30T02:48:25.823Z,34.33
2019-03-30T02:53:29.178Z,33.02
2019-03-30T02:58:32.793Z,31.00
2019-03-30T03:03:34.296Z,29.32
2019-03-30T03:08:37.525Z,31.77
2019-03-30T03:13:38.934Z,29.70
2019-03-30T03:18:40.440Z,29.95
2019-03-30T03:23:41.982Z,29.48
2019-03-30T03:28:43.570Z,30.32
2019-03-30T03:33:45.305Z,30.48
2019-03-30T03:38:46.899Z,33.50
2019-03-30T03:43:50.400Z,32.17
2019-03-30T03:48:51.875Z,29.50
2019-03-30T03:59:15.348Z,27.13
2019-03-30T04:04:21.014Z,27.58
2019-03-30T04:09:22.867Z,32.03
2019-03-30T04:14:25.385Z,29.10
2019-03-30T04:19:27.103Z,27.50
2019-03-30T04:24:28.455Z,28.60
2019-03-30T04:29:29.758Z,27.25
2019-03-30T04:34:31.082Z,29.92
2019-03-30T04:39:34.232Z,31.87
2019-03-30T04:44:37.712Z,27.62
2019-03-30T04:49:39.112Z,26.00
2019-03-30T04:54:42.181Z,24.92
2019-03-30T04:59:43.670Z,28.25
2019-03-30T05:04:45.357Z,28.30
2019-03-30T05:09:46.777Z,27.80
2019-03-30T05:14:48.266Z,25.45
2019-03-30T05:19:49.944Z,31.15
2019-03-30T05:24:51.492Z,25.52
2019-03-30T05:29:53.165Z,30.80
2019-03-30T05:34:54.729Z,25.05
2019-03-30T05:39:56.379Z,25.88
2019-03-30T05:44:58.208Z,31.20
2019-03-30T05:50:00.037Z,31.00
2019-03-30T05:55:01.831Z,29.55
2019-03-30T06:00:06.809Z,31.87
2019-03-30T06:05:09.584Z,30.95
2019-03-30T06:10:11.276Z,30.80
2019-03-30T06:15:13.168Z,31.77
2019-03-30T06:20:14.821Z,28.73
2019-03-30T06:25:16.187Z,31.07
2019-03-30T06:30:26.481Z,28.35
2019-03-30T06:35:28.048Z,27.58
2019-03-30T06:40:29.591Z,26.85
2019-03-30T06:45:32.942Z,25.08
2019-03-30T06:50:34.563Z,25.85
2019-03-30T06:55:36.558Z,23.57
2019-03-30T07:00:38.100Z,23.52
2019-03-30T07:05:41.122Z,26.60
2019-03-30T07:10:43.948Z,25.02
2019-03-30T07:15:47.236Z,26.55
2019-03-30T07:21:07.500Z,22.65
2019-03-30T07:26:09.630Z,29.77
2019-03-30T07:31:11.093Z,29.30
2019-03-30T07:36:14.146Z,27.20
2019-03-30T07:41:15.640Z,24.40
2019-03-30T07:46:19.634Z,21.70
2019-03-30T07:51:20.571Z,36.50
2019-03-30T07:56:21.965Z,21.27
2019-03-30T08:01:24.707Z,24.70
2019-03-30T08:06:26.187Z,23.20
2019-03-30T08:11:27.620Z,21.12
2019-03-30T08:16:29.003Z,21.55
2019-03-30T08:21:30.323Z,22.50
2019-03-30T08:26:31.784Z,25.50
2019-03-30T08:31:37.145Z,22.35
2019-03-30T08:36:39.028Z,20.25
2019-03-30T08:41:40.589Z,23.65
2019-03-30T08:46:42.477Z,23.00
2019-03-30T08:51:45.888Z,21.70
2019-03-30T08:56:47.389Z,22.15
2019-03-30T09:01:49.709Z,22.87
2019-03-30T09:06:51.093Z,24.35
2019-03-30T09:11:52.404Z,24.47
2019-03-30T09:16:56.697Z,20.05
2019-03-30T09:21:58.313Z,19.95
2019-03-30T09:26:59.675Z,21.05
2019-03-30T09:32:13.823Z,20.30
2019-03-30T09:37:06.553Z,20.60
2019-03-30T09:42:08.202Z,23.75
2019-03-30T09:47:09.514Z,26.48
2019-03-30T09:52:11.526Z,24.43
2019-03-30T09:57:13.398Z,25.57
2019-03-30T10:02:15.992Z,26.27
2019-03-30T10:07:17.403Z,26.97
2019-03-30T10:12:18.690Z,23.27
2019-03-30T10:17:20.129Z,23.65
2019-03-30T10:22:21.601Z,28.70
2019-03-30T10:27:23.406Z,26.00
2019-03-30T10:32:25.341Z,28.57
2019-03-30T10:37:45.351Z,28.38
2019-03-30T10:42:49.045Z,28.35
2019-03-30T10:47:50.395Z,30.35
2019-03-30T10:52:51.931Z,30.65
2019-03-30T10:57:53.329Z,31.20
2019-03-30T11:02:54.932Z,28.87
2019-03-30T11:07:56.395Z,30.88
2019-03-30T11:12:57.840Z,30.75
2019-03-30T11:17:59.286Z,33.13
2019-03-30T11:23:00.913Z,32.80
2019-03-30T11:28:02.713Z,33.10
2019-03-30T11:33:04.216Z,38.75
2019-03-30T11:38:05.658Z,36.38
2019-03-30T11:43:07.186Z,37.53
2019-03-30T11:48:09.675Z,31.20
2019-03-30T11:53:11.195Z,27.93
2019-03-30T11:58:12.639Z,30.92
2019-03-30T12:03:14.835Z,28.80
2019-03-30T12:08:16.315Z,27.95
2019-03-30T12:13:21.396Z,28.25
2019-03-30T12:18:22.816Z,26.87
2019-03-30T12:23:26.404Z,30.60
2019-03-30T12:28:27.977Z,24.52
2019-03-30T12:33:29.639Z,28.27
2019-03-30T12:38:31.213Z,25.60
2019-03-30T12:43:38.773Z,27.42
2019-03-30T12:48:40.330Z,30.30
2019-03-30T12:53:49.930Z,27.80
2019-03-30T12:58:45.907Z,33.63
2019-03-30T13:03:47.544Z,29.02
2019-03-30T13:08:49.733Z,28.12
2019-03-30T13:13:51.797Z,28.85
2019-03-30T13:18:56.589Z,31.82
2019-03-30T13:24:01.453Z,32.95
2019-03-30T13:29:04.817Z,24.35
2019-03-30T13:34:07.190Z,26.35
2019-03-30T13:39:09.139Z,27.90
2019-03-30T13:44:11.091Z,28.98
2019-03-30T13:49:12.840Z,25.52
2019-03-30T13:54:14.809Z,30.35
2019-03-30T13:59:16.568Z,32.13
2019-03-30T14:04:36.829Z,30.27
2019-03-30T14:09:38.287Z,27.60
2019-03-30T14:14:39.731Z,25.62
2019-03-30T14:19:42.388Z,34.73
2019-03-30T14:24:43.857Z,30.65
2019-03-30T14:29:45.295Z,31.87
2019-03-30T14:34:47.045Z,31.27
2019-03-30T14:39:48.618Z,29.57
2019-03-30T14:44:50.116Z,32.88
2019-03-30T14:49:51.780Z,32.10
2019-03-30T14:54:54.465Z,30.95
2019-03-30T14:59:59.071Z,29.20
2019-03-30T15:05:01.168Z,30.72
2019-03-30T15:10:06.819Z,30.60
2019-03-30T15:15:09.825Z,33.73
2019-03-30T15:20:13.294Z,29.35
2019-03-30T15:25:14.845Z,31.30
2019-03-30T15:30:16.518Z,30.45
2019-03-30T15:35:18.728Z,31.80
2019-03-30T15:40:20.063Z,31.68
2019-03-30T15:45:21.372Z,30.85
2019-03-30T15:50:25.620Z,34.10
2019-03-30T15:55:27.114Z,31.37
2019-03-30T16:00:28.664Z,31.35
2019-03-30T16:05:30.235Z,43.35
2019-03-30T16:10:32.910Z,41.77
2019-03-30T16:15:34.407Z,44.08
2019-03-30T16:20:39.029Z,44.08
2019-03-30T16:25:40.772Z,42.00
2019-03-30T16:30:42.281Z,43.63
2019-03-30T16:35:43.730Z,40.28
2019-03-30T16:40:45.341Z,42.30
2019-03-30T16:45:46.946Z,48.48
2019-03-30T16:50:48.415Z,43.98
2019-03-30T16:55:50.080Z,45.52
2019-03-30T17:00:56.917Z,42.53
2019-03-30T17:05:57.075Z,44.35
2019-03-30T17:10:58.553Z,50.15
2019-03-30T17:15:59.922Z,47.33
2019-03-30T17:21:02.069Z,45.88
2019-03-30T17:26:03.910Z,47.38
2019-03-30T17:31:07.713Z,45.33
2019-03-30T17:36:09.372Z,47.48
2019-03-30T17:41:11.930Z,43.25
2019-03-30T17:46:13.358Z,45.25
2019-03-30T17:51:16.085Z,50.73
2019-03-30T17:56:17.581Z,49.27
2019-03-30T18:01:18.991Z,50.52
2019-03-30T18:06:20.467Z,53.78
2019-03-30T18:11:22.011Z,54.95
2019-03-30T18:16:23.549Z,62.50
2019-03-30T18:21:24.883Z,68.12
2019-03-30T18:26:26.253Z,70.37
2019-03-30T18:31:27.686Z,73.90
2019-03-30T18:36:30.443Z,76.55
2019-03-30T18:41:31.917Z,79.50
2019-03-30T18:46:33.495Z,76.80
2019-03-30T18:51:38.351Z,72.87
2019-03-30T18:56:39.807Z,76.20
2019-03-30T19:01:41.173Z,73.55
2019-03-30T19:06:42.753Z,81.42
2019-03-30T19:11:45.393Z,82.12
2019-03-30T19:16:46.817Z,79.60
2019-03-30T19:21:48.245Z,77.97
2019-03-30T19:26:49.683Z,76.67
2019-03-30T19:31:51.234Z,79.92
2019-03-30T19:36:55.768Z,78.12
2019-03-30T19:41:57.298Z,79.47
2019-03-30T19:46:59.249Z,72.50
2019-03-30T19:52:00.629Z,83.07
2019-03-30T19:57:02.017Z,103.53
2019-03-30T20:02:04.148Z,84.00
2019-03-30T20:07:05.891Z,102.47
2019-03-30T20:12:07.313Z,86.85
2019-03-30T20:17:09.271Z,85.00
2019-03-30T20:22:10.829Z,88.50
2019-03-30T20:27:12.262Z,88.47
2019-03-30T20:32:13.583Z,90.62
2019-03-30T20:37:15.159Z,85.22
2019-03-30T20:42:17.779Z,89.05
2019-03-30T20:47:19.234Z,80.05
2019-03-30T20:52:21.660Z,73.12
2019-03-30T20:57:23.159Z,83.27
2019-03-30T21:02:24.544Z,79.62
2019-03-30T21:07:25.992Z,83.78
2019-03-30T21:12:27.418Z,81.50
2019-03-30T21:17:29.897Z,85.55
2019-03-30T21:22:31.322Z,83.00
2019-03-30T21:27:32.912Z,81.08
2019-03-30T21:32:34.332Z,88.42
2019-03-30T21:37:36.100Z,78.83
2019-03-30T21:42:38.939Z,78.72
2019-03-30T21:47:40.288Z,85.57
2019-03-30T21:52:43.980Z,79.85
2019-03-30T21:57:45.712Z,79.65
2019-03-30T22:02:48.127Z,79.65
2019-03-30T22:07:49.870Z,83.90
2019-03-30T22:12:51.642Z,91.25
2019-03-30T22:17:53.223Z,90.22
2019-03-30T22:28:00.688Z,93.00
2019-03-30T22:33:02.203Z,84.05
2019-03-30T22:38:03.675Z,84.15
2019-03-30T22:43:05.325Z,95.40
2019-03-30T22:48:06.659Z,88.75
2019-03-30T22:53:08.238Z,90.28
2019-03-30T22:58:11.720Z,93.78
2019-03-30T23:03:14.504Z,95.77
2019-03-30T23:08:16.122Z,97.15
2019-03-30T23:13:17.609Z,101.02
2019-03-30T23:18:18.991Z,95.85
2019-03-30T23:23:20.472Z,102.02
2019-03-30T23:28:22.161Z,103.72
2019-03-30T23:33:23.643Z,101.85
2019-03-30T23:38:25.581Z,103.90
2019-03-30T23:43:26.971Z,107.37
2019-03-30T23:48:28.531Z,98.27
2019-03-30T23:53:30.033Z,98.58
2019-03-30T23:58:31.669Z,97.12
